Burrton, Kansas
Current Conditions -  °F | °C
As of 11:52 AM on Wednesday 26 Nov 2014 (Local Time) from KHUT Reporting Station
Clear Clear  
Wind Chill: 37°   Ceiling: Unl
Heat Index: 46°   Visibility: 10mi
Dew Point: 22°   Wind: 26mph
Humidity: 39%   Direction: 320°NW
Pressure: 30.17"   Gusts: 39mph
Location:  38.02°N, 97.67°W
Report Text: KHUT 261752Z 32023G34KT 10SM CLR 08/M06 A3017 RMK AO2 PK WND 32034/1744 SLP214 T00781056 10083 20056 50023
Loading
Personal Weather Stations






























Interactive Weather Map New forecast layout! Learn more

10-Day Weather Forecast

Advertisements
Track Severe Weather on mobile